Thunder radar more information blitzortung!


Radar de pluja more information rain snow radar


Visita la nostra xarxa de llocs de meteo:

Template documentation
and downloads

And another site



No particular awareness of the weather is required.    There are no Weather-warnings

Pagina Historial Weather Underground text

Diari Resum Setembre 14, 2017 Unitats:  Imperial    Mètric   Tant
« Previous Dia
SegĂźent Dia »
Diari Setmana Mensual Anual Personalitzada
  Maxima: Minima: Media:
Temperatura: TemperatureC °F 15.1 °F 19.6 °F
Punt de rosada: DewpointC °F 11.4 °F 13.4 °F
Humitat: Humidity % 52 % 67 %
Wind Speed: WindSpeedKMH mph 0.0 mph 4.1 mph
RĂ fegues de vent: WindSpeedGustKMH mph - -
Vent:- - South
Pression baro: PressurehPa in 1013.8 in -
Precipitacions: 0.0 in    
Historical Graphs
 
 
Dades de taula per Setembre 14, 2017
Temps Temperatura Punt de rosada Pression baro Vent Wind Speed RĂ fegues de vent Humitat Rainfall Rate (Hourly)
TemperatureC °F DewpointC °F PressurehPa in Calm     Humidity % HourlyPrecipMM in
00:04 20.5 °F 16.3 °F 1017.8 in West 3.7 mph 3.7 mph 77 % 0.0 in
00:05 20.5 °F 16.3 °F 1017.8 in SW 3.7 mph 3.7 mph 77 % 0.0 in
19:15 18.2 °F 11.5 °F 1016.8 in ESE 3.2 mph 3.2 mph 65 % 0.0 in
19:25 18.1 °F 11.4 °F 1015.8 in ESE 3.2 mph 4.8 mph 65 % 0.0 in
19:35 18.1 °F 11.7 °F 1015.8 in Calm   3.2 mph 66 % 0.0 in
19:45 17.8 °F 11.8 °F 1015.8 in Calm   4.8 mph 68 % 0.0 in
19:55 17.5 °F 11.7 °F 1015.8 in SSE 3.2 mph 3.2 mph 69 % 0.0 in
20:05 17.4 °F 12.1 °F 1015.8 in Calm   6.4 mph 71 % 0.0 in
20:15 16.8 °F 12.1 °F 1015.8 in South 1.6 mph 1.6 mph 74 % 0.0 in
20:25 16.4 °F 11.9 °F 1015.8 in SW 1.6 mph 3.2 mph 75 % 1.0 in
20:35 16.1 °F 12.3 °F 1015.8 in SSW 3.2 mph 4.8 mph 78 % 5.3 in
20:45 16.0 °F 12.3 °F 1015.8 in NE 1.6 mph 3.2 mph 79 % 5.3 in
20:55 15.9 °F 12.4 °F 1015.8 in NNE 3.2 mph 3.2 mph 80 % 1.0 in
21:05 15.9 °F 12.7 °F 1015.8 in NE 1.6 mph 3.2 mph 81 % 0.0 in
21:15 15.8 °F 12.7 °F 1015.8 in North 1.6 mph 3.2 mph 82 % 0.0 in
21:25 15.9 °F 13.0 °F 1015.8 in NNW 1.6 mph 3.2 mph 83 % 0.0 in
21:35 15.7 °F 12.4 °F 1015.8 in West 3.2 mph 4.8 mph 81 % 0.0 in
21:42 30.4 °F 19.4 °F 1013.8 in West 1.9 mph   52 % 0.0 in
21:43 30.4 °F 19.4 °F 1013.8 in West 1.9 mph   52 % 0.0 in
21:45 15.5 °F 12.4 °F 1014.8 in West 3.2 mph 4.8 mph 82 % 0.0 in
21:48 30.4 °F 19.4 °F 1013.8 in West 1.9 mph   52 % 0.0 in
21:53 30.4 °F 19.4 °F 1013.8 in West 1.9 mph   52 % 0.0 in
21:55 15.3 °F 12.2 °F 1015.8 in WNW 1.6 mph 3.2 mph 82 % 0.0 in
21:58 30.4 °F 19.4 °F 1013.8 in West 1.9 mph   52 % 0.0 in
22:03 30.4 °F 19.4 °F 1013.8 in West 1.9 mph   52 % 0.0 in
22:05 15.1 °F 12.2 °F 1015.8 in North 3.2 mph 4.8 mph 83 % 1.0 in
22:10 20.7 °F 14.1 °F 1016.8 in WSW 4.2 mph 4.2 mph 66 % 0.0 in
22:15 20.7 °F 14.1 °F 1016.8 in SW 3.7 mph 3.7 mph 66 % 0.0 in
22:20 20.7 °F 14.1 °F 1015.8 in WSW 3.7 mph 3.7 mph 66 % 0.0 in
22:25 20.7 °F 14.1 °F 1015.8 in WSW 3.7 mph 3.7 mph 66 % 0.0 in
22:30 20.7 °F 14.1 °F 1015.8 in WSW 3.7 mph 3.7 mph 66 % 0.0 in
22:35 20.7 °F 14.1 °F 1015.8 in SW 2.6 mph   66 % 0.0 in
22:40 20.7 °F 14.1 °F 1015.8 in West 3.2 mph   66 % 0.0 in
22:45 20.7 °F 14.1 °F 1015.8 in South 3.7 mph 3.7 mph 66 % 0.0 in
22:50 20.7 °F 14.1 °F 1015.8 in NNE 3.7 mph 3.7 mph 66 % 0.0 in
22:55 20.7 °F 14.3 °F 1015.8 in ENE 4.7 mph 4.7 mph 67 % 0.0 in
23:00 20.6 °F 14.5 °F 1015.8 in East 3.7 mph 3.7 mph 68 % 0.0 in
23:05 20.5 °F 14.4 °F 1015.8 in SE 13.7 mph 13.7 mph 68 % 0.0 in
23:10 20.0 °F 13.4 °F 1015.8 in East 11.1 mph 11.1 mph 66 % 0.0 in
23:15 19.8 °F 13.1 °F 1015.8 in ESE 9.3 mph 9.3 mph 65 % 0.0 in
23:20 19.6 °F 12.4 °F 1015.8 in ESE 11.1 mph 11.1 mph 63 % 0.0 in
23:25 19.4 °F 12.2 °F 1015.8 in East 7.4 mph 7.4 mph 63 % 0.0 in
23:30 19.2 °F 11.7 °F 1015.8 in ESE 9.3 mph 9.3 mph 62 % 0.0 in
23:35 19.1 °F 11.7 °F 1014.8 in ENE 9.3 mph 9.3 mph 62 % 0.0 in
23:40 18.8 °F 11.6 °F 1014.8 in ESE 11.1 mph 11.1 mph 63 % 0.0 in
23:45 18.5 °F 11.6 °F 1014.8 in ESE 11.1 mph 11.1 mph 64 % 0.0 in
23:50 18.5 °F 11.6 °F 1015.8 in ESE 5.6 mph 5.6 mph 64 % 0.0 in
23:55 18.4 °F 11.4 °F 1015.8 in ENE 4.2 mph 4.2 mph 64 % 0.0 in
Meteo Sesrovires
Elogis d' Weather Underground - 1 mb

Guio original per  Jim McMurry - jmcmurry@mwt.net Adaptat per a la plantilla per  Wim van der Kuil - Leuven-Template.eu

Trobareu la nostra informacio del temps tambe a:

Weather Underground

AWEKAS